Saskatoon John G. Diefenbaker International Airport
CYXE : now visible

Airfield :











YOU CAN JOIN US ON...

 
LOGIN :

Register | Disclaimer

   EN    FR    IT 

 









Legend :    VFR   Marginal VFR   IFR   Intensive IFR   Very Intensive IFR
Visi :
Ceiling :
>= 8 km
>= 3000ft
5 to 8 km
1000 to 3000 ft
1500m to 5 km
500 to 1000 ft
800 to 1500m
200 to 500 ft
< 800m
< 200 ft
Symbols :   Thunderstorms  Fog  Heavy snow  Heavy precipitations  Wind > 20 kt







- Airport Elevation : 1653 ft
- IATA code : YXE


CYXE - Saskatoon John G. Diefenbaker International

CURRENT METAR :
  • 230006Z 32010G24KT 6SM R09/4000VP6000FT/U TSRA BKN040CB OVC073 17/16 A2984 RMK CB7AC1 LTGCC ALQDS SLP113 DENSITY ALT 2500FT

EXPIRED METARs :
  • 222353Z 29015G20KT 7SM TSRA BKN044CB OVC073 19/17 A2983 RMK CB6AC2 LTGCC ALQDS PRESRR SLP111 DENSITY ALT 2600FT
  • 222340Z 32012KT 10SM -TSRA BKN040CB OVC073 19/17 A2981 RMK CB6AC2 OCNL LTGCC SW-NE SLP103 DENSITY ALT 2700FT
  • 222328Z 33009KT 10SM -SHRA BKN040CB OVC073 20/18 A2981 RMK CB6AC2 SLP102 DENSITY ALT 2800FT
  • 222300Z 30011G16KT 15SM BKN040 OVC100 20/17 A2982 RMK SC6ACC2 CB EMBD SLP106 DENSITY ALT 2800FT
  • 222249Z 29010KT 15SM BKN040 OVC100 21/18 A2982 RMK SC5ACC3 CB EMBD SLP105 DENSITY ALT 2800FT
  • 222200Z 25005KT 10SM -SHRA SCT040 OVC100 22/17 A2980 RMK SC3ACC5 CB EMBD SLP098 DENSITY ALT 3000FT
  • 222131Z 22009KT 15SM -SHRA SCT040 OVC100 24/15 A2981 RMK SC3ACC5 CB EMBD SLP100 DENSITY ALT 3300FT

TAF TAF CYXE
Valid from the 23 at 00:00 until the 24 at 00:00 UTC


222347Z 2300/2324 VRB15G30KT 4SM TSRA OVC040CB
TEMPO 2300/2303 33010KT P6SM -SHRA BKN040 OVC100
FM230230 36010KT P6SM BKN050 BKN120
TEMPO 2302/2307 P6SM -SHRA
PROB30 2302/2304 VRB15G25KT 4SM TSRA OVC050CB
FM230700 35006KT P6SM FEW015 BKN100
FM231000 34004KT P6SM FEW003
PROB40 2310/2314 3/4SM BR BKN003
FM231500 03008KT P6SM FEW008
FM231800 08010KT P6SM SKC RMK NXT FCST BY 230600Z
No reported NOTAMs for that airfield.



MET'MAP, your aeronautical weather chart ! - Copyright ORBIFLY December 2007 - Disclaimer

ORBIFLY MET'MAP TEAM :

Programming & Development : Alexandra Zaïnal
Concept & Development : Baudouin d'Aumeries
Co-Development & Prog : Marc-Olivier Méhu
Technical & hardware support : Manuel Goepfert

Contact : metmap@orbifly.com




SOURCES & CREDITS :

   NOAA       Earth
Advisory